createdAt,value
2023-03-02T00:01:04.450Z,68.33
2023-03-02T00:03:31.942Z,68.57
2023-03-02T00:05:58.420Z,68.76
2023-03-02T00:08:24.898Z,68.56
2023-03-02T00:10:51.379Z,68.75
2023-03-02T00:13:17.842Z,68.58
2023-03-02T00:15:44.325Z,68.85
2023-03-02T00:18:10.850Z,68.78
2023-03-02T00:20:37.376Z,68.59
2023-03-02T00:23:03.812Z,68.47
2023-03-02T00:25:52.283Z,68.62
2023-03-02T00:28:18.789Z,68.42
2023-03-02T00:30:45.227Z,68.60
2023-03-02T00:33:11.718Z,68.52
2023-03-02T00:35:41.427Z,68.81
2023-03-02T00:38:08.307Z,68.59
2023-03-02T00:40:35.155Z,69.45
2023-03-02T00:43:01.629Z,69.08
2023-03-02T00:45:28.072Z,68.93
2023-03-02T00:47:54.570Z,69.02
2023-03-02T00:50:21.029Z,69.06
2023-03-02T00:52:47.476Z,68.82
2023-03-02T00:55:13.994Z,68.63
2023-03-02T00:57:40.461Z,69.11
2023-03-02T01:00:07.231Z,69.20
2023-03-02T01:02:33.822Z,69.23
2023-03-02T01:05:00.325Z,69.25
2023-03-02T01:07:28.572Z,69.13
2023-03-02T01:09:55.201Z,69.20
2023-03-02T01:12:21.679Z,69.41
2023-03-02T01:14:48.402Z,68.93
2023-03-02T01:17:14.889Z,69.27
2023-03-02T01:19:41.489Z,69.48
2023-03-02T01:22:08.053Z,69.75
2023-03-02T01:24:34.527Z,69.69
2023-03-02T01:27:01.011Z,69.73
2023-03-02T01:29:27.475Z,69.49
2023-03-02T01:31:54.321Z,69.54
2023-03-02T01:34:20.941Z,69.10
2023-03-02T01:36:47.417Z,69.05
2023-03-02T01:39:16.961Z,69.20
2023-03-02T01:41:43.948Z,69.20
2023-03-02T01:44:29.227Z,69.38
2023-03-02T01:46:55.684Z,69.28
2023-03-02T01:49:22.421Z,69.35
2023-03-02T01:51:48.975Z,69.35
2023-03-02T01:54:17.382Z,69.46
2023-03-02T01:56:44.232Z,69.35
2023-03-02T01:59:12.054Z,69.91
2023-03-02T02:01:39.733Z,69.78
2023-03-02T02:04:06.202Z,70.84
2023-03-02T02:06:35.175Z,70.58
2023-03-02T02:09:01.776Z,70.59
2023-03-02T02:11:28.248Z,70.49
2023-03-02T02:13:55.954Z,70.34
2023-03-02T02:16:22.426Z,70.53
2023-03-02T02:18:48.948Z,70.20
2023-03-02T02:21:15.404Z,70.23
2023-03-02T02:24:00.659Z,70.29
2023-03-02T02:26:47.423Z,70.43
2023-03-02T02:29:14.867Z,70.58
2023-03-02T02:31:48.618Z,70.49
2023-03-02T02:34:16.621Z,70.21
2023-03-02T02:36:44.049Z,70.18
2023-03-02T02:39:11.880Z,70.25
2023-03-02T02:41:38.561Z,70.27
2023-03-02T02:44:05.133Z,70.17
2023-03-02T02:46:31.922Z,69.98
2023-03-02T02:48:58.502Z,69.91
2023-03-02T02:51:26.523Z,69.79
2023-03-02T02:54:00.142Z,69.82
2023-03-02T02:56:33.963Z,69.70
2023-03-02T02:59:07.996Z,69.84
2023-03-02T03:01:34.550Z,69.81
2023-03-02T03:04:01.992Z,69.71
2023-03-02T03:06:30.689Z,70.37
2023-03-02T03:08:58.268Z,70.60
2023-03-02T03:11:26.702Z,70.99
2023-03-02T03:13:58.453Z,70.96
2023-03-02T03:16:25.005Z,71.08
2023-03-02T03:18:51.499Z,71.18
2023-03-02T03:21:18.497Z,71.10
2023-03-02T03:23:45.123Z,70.77
2023-03-02T03:26:11.594Z,70.95
2023-03-02T03:28:38.093Z,71.09
2023-03-02T03:31:04.690Z,71.14
2023-03-02T03:33:31.229Z,70.42
2023-03-02T03:35:57.836Z,70.45
2023-03-02T03:38:24.525Z,70.59
2023-03-02T03:40:50.966Z,70.47
2023-03-02T03:43:17.446Z,70.68
2023-03-02T03:45:43.877Z,70.46
2023-03-02T03:48:10.316Z,70.24
2023-03-02T03:50:36.793Z,70.92
2023-03-02T03:53:03.980Z,70.66
2023-03-02T03:55:31.250Z,70.37
2023-03-02T03:57:57.813Z,70.75
2023-03-02T04:00:24.346Z,70.68
2023-03-02T04:02:50.980Z,70.82
2023-03-02T04:05:17.597Z,70.72
2023-03-02T04:07:44.087Z,70.58
2023-03-02T04:10:11.395Z,70.69
2023-03-02T04:12:38.408Z,70.61
2023-03-02T04:15:05.680Z,70.51
2023-03-02T04:17:32.171Z,70.46
2023-03-02T04:19:59.595Z,70.41
2023-03-02T04:22:26.406Z,70.44
2023-03-02T04:24:52.905Z,70.10
2023-03-02T04:27:19.432Z,70.32
2023-03-02T04:29:46.362Z,70.29
2023-03-02T04:32:14.894Z,70.17
2023-03-02T04:34:41.717Z,70.09
2023-03-02T04:37:08.186Z,69.91
2023-03-02T04:39:34.707Z,70.29
2023-03-02T04:42:01.304Z,70.42
2023-03-02T04:44:27.779Z,70.40
2023-03-02T04:46:54.339Z,70.04
2023-03-02T04:49:20.852Z,70.15
2023-03-02T04:51:47.947Z,69.90
2023-03-02T04:54:15.613Z,70.01
2023-03-02T04:56:42.202Z,70.06
2023-03-02T04:59:08.694Z,70.61
2023-03-02T05:01:35.222Z,70.42
2023-03-02T05:04:03.019Z,70.49
2023-03-02T05:06:29.733Z,70.50
2023-03-02T05:08:59.847Z,70.94
2023-03-02T05:11:26.380Z,70.32
2023-03-02T05:13:53.735Z,70.60
2023-03-02T05:16:20.434Z,70.37
2023-03-02T05:18:47.174Z,70.83
2023-03-02T05:21:14.543Z,70.54
2023-03-02T05:23:41.328Z,70.06
2023-03-02T05:26:07.874Z,70.24
2023-03-02T05:28:34.385Z,70.67
2023-03-02T05:31:01.110Z,70.40
2023-03-02T05:33:27.750Z,70.64
2023-03-02T05:35:54.295Z,70.63
2023-03-02T05:38:21.103Z,70.73
2023-03-02T05:40:47.741Z,70.84
2023-03-02T05:43:15.768Z,70.55
2023-03-02T05:45:42.420Z,70.53
2023-03-02T05:48:08.946Z,70.45
2023-03-02T05:50:35.525Z,70.51
2023-03-02T05:53:02.646Z,70.67
2023-03-02T05:55:29.252Z,70.66
2023-03-02T05:57:55.771Z,70.43
2023-03-02T06:00:22.418Z,70.63
2023-03-02T06:02:49.101Z,70.33
2023-03-02T06:05:16.670Z,70.50
2023-03-02T06:07:43.124Z,70.28
2023-03-02T06:10:10.207Z,70.37
2023-03-02T06:12:36.685Z,70.45
2023-03-02T06:15:04.017Z,70.41
2023-03-02T06:17:30.540Z,70.67
2023-03-02T06:19:57.027Z,70.43
2023-03-02T06:22:23.471Z,70.47
2023-03-02T06:24:49.921Z,70.33
2023-03-02T06:27:16.385Z,70.11
2023-03-02T06:29:42.842Z,70.34
2023-03-02T06:32:11.479Z,70.78
2023-03-02T06:34:38.045Z,70.37
2023-03-02T06:37:04.506Z,70.41
2023-03-02T06:39:31.021Z,70.43
2023-03-02T06:41:58.795Z,70.27
2023-03-02T06:44:25.313Z,70.34
2023-03-02T06:46:51.801Z,70.07
2023-03-02T06:49:18.273Z,70.21
2023-03-02T06:51:44.736Z,70.12
2023-03-02T06:54:11.222Z,70.01
2023-03-02T06:56:40.017Z,70.00
2023-03-02T06:59:08.017Z,70.05
2023-03-02T07:01:36.512Z,70.29
2023-03-02T07:04:03.471Z,70.10
2023-03-02T07:06:30.021Z,69.98
2023-03-02T07:08:56.486Z,70.92
2023-03-02T07:11:23.008Z,70.48
2023-03-02T07:13:49.829Z,70.42
2023-03-02T07:16:16.428Z,70.39
2023-03-02T07:18:42.944Z,70.55
2023-03-02T07:21:09.662Z,70.72
2023-03-02T07:23:36.226Z,70.47
2023-03-02T07:26:02.688Z,70.64
2023-03-02T07:28:29.165Z,70.93
2023-03-02T07:30:55.872Z,71.15
2023-03-02T07:33:22.613Z,71.65
2023-03-02T07:35:49.156Z,71.40
2023-03-02T07:38:15.734Z,71.10
2023-03-02T07:40:42.559Z,69.98
2023-03-02T07:43:09.273Z,67.54
2023-03-02T07:45:35.816Z,66.06
2023-03-02T07:48:02.313Z,58.39
2023-03-02T07:50:28.857Z,60.46
2023-03-02T07:52:55.356Z,55.43
2023-03-02T07:55:21.925Z,52.57
2023-03-02T07:57:48.396Z,49.85
2023-03-02T08:00:15.162Z,47.73
2023-03-02T08:02:41.945Z,47.19
2023-03-02T08:05:08.800Z,45.95
2023-03-02T08:07:35.484Z,39.51
2023-03-02T08:10:02.106Z,37.90
2023-03-02T08:12:28.707Z,37.50
2023-03-02T08:14:55.306Z,36.34
2023-03-02T08:17:21.785Z,35.60
2023-03-02T08:19:48.304Z,34.45
2023-03-02T08:22:14.755Z,32.38
2023-03-02T08:24:41.979Z,29.91
2023-03-02T08:27:08.955Z,29.07
2023-03-02T08:29:35.434Z,28.35
2023-03-02T08:32:02.075Z,28.04
2023-03-02T08:34:28.670Z,27.29
2023-03-02T08:36:55.220Z,28.17
2023-03-02T08:39:24.598Z,25.66
2023-03-02T08:41:51.582Z,24.16
2023-03-02T08:44:18.231Z,25.18
2023-03-02T08:46:44.667Z,23.77
2023-03-02T08:49:11.119Z,23.87
2023-03-02T08:51:37.614Z,26.03
2023-03-02T08:54:04.210Z,27.08
2023-03-02T08:56:31.736Z,28.33
2023-03-02T08:58:59.380Z,28.95
2023-03-02T09:01:29.905Z,30.44
2023-03-02T09:03:57.619Z,31.87
2023-03-02T09:06:24.180Z,32.49
2023-03-02T09:08:50.815Z,34.32
2023-03-02T09:11:17.388Z,35.58
2023-03-02T09:13:43.912Z,36.34
2023-03-02T09:16:10.468Z,36.83
2023-03-02T09:18:36.954Z,38.22
2023-03-02T09:21:03.567Z,38.80
2023-03-02T09:23:30.353Z,39.60
2023-03-02T09:25:56.825Z,40.45
2023-03-02T09:28:23.289Z,41.83
2023-03-02T09:30:53.682Z,42.99
2023-03-02T09:33:20.333Z,43.29
2023-03-02T09:35:47.728Z,43.31
2023-03-02T09:38:17.106Z,44.19
2023-03-02T09:41:03.946Z,44.67
2023-03-02T09:43:36.652Z,45.62
2023-03-02T09:46:20.896Z,45.18
2023-03-02T09:49:07.652Z,45.75
2023-03-02T09:51:34.731Z,46.28
2023-03-02T09:54:04.705Z,46.28
2023-03-02T09:56:31.491Z,46.09
2023-03-02T09:59:00.117Z,46.62
2023-03-02T10:01:32.895Z,46.66
2023-03-02T10:04:06.081Z,47.18
2023-03-02T10:06:32.892Z,46.99
2023-03-02T10:08:59.724Z,47.45
2023-03-02T10:11:35.300Z,47.08
2023-03-02T10:14:15.605Z,47.02
2023-03-02T10:16:42.096Z,47.34
2023-03-02T10:19:13.965Z,46.98
2023-03-02T10:21:44.540Z,47.07
2023-03-02T10:24:11.087Z,47.73
2023-03-02T10:26:38.910Z,47.01
2023-03-02T10:29:11.625Z,47.27
2023-03-02T10:31:39.107Z,47.27
2023-03-02T10:34:13.904Z,47.32
2023-03-02T10:36:41.301Z,48.95
2023-03-02T10:39:10.385Z,48.31
2023-03-02T10:41:41.195Z,48.31
2023-03-02T10:44:13.900Z,47.91
2023-03-02T10:46:44.266Z,46.81
2023-03-02T10:49:29.601Z,47.29
2023-03-02T10:51:57.326Z,47.62
2023-03-02T10:54:34.791Z,47.40
2023-03-02T10:57:05.401Z,47.75
2023-03-02T10:59:33.672Z,47.12
2023-03-02T11:02:01.642Z,48.50
2023-03-02T11:04:28.431Z,46.75
2023-03-02T11:06:54.945Z,47.57
2023-03-02T11:09:21.529Z,46.93
2023-03-02T11:11:53.048Z,45.67
2023-03-02T11:14:19.614Z,46.90
2023-03-02T11:16:47.366Z,46.13
2023-03-02T11:19:24.686Z,46.34
2023-03-02T11:21:58.732Z,45.81
2023-03-02T11:24:39.567Z,46.70
2023-03-02T11:27:25.761Z,45.08
2023-03-02T11:29:59.336Z,45.17
2023-03-02T11:32:29.275Z,45.22
2023-03-02T11:35:00.741Z,45.19
2023-03-02T11:37:35.143Z,45.86
2023-03-02T11:40:06.841Z,45.74
2023-03-02T11:42:37.513Z,45.35
2023-03-02T11:45:08.947Z,45.45
2023-03-02T11:47:35.439Z,45.31
2023-03-02T11:50:05.267Z,45.75
2023-03-02T11:52:32.615Z,46.21
2023-03-02T11:55:06.687Z,46.54
2023-03-02T11:57:40.463Z,46.17
2023-03-02T12:00:11.846Z,45.73
2023-03-02T12:02:38.297Z,45.44
2023-03-02T12:05:05.802Z,45.09
2023-03-02T12:07:32.310Z,45.50
2023-03-02T12:09:58.722Z,44.71
2023-03-02T12:12:35.711Z,44.85
2023-03-02T12:15:02.238Z,46.22
2023-03-02T12:17:30.079Z,45.59
2023-03-02T12:20:08.916Z,46.11
2023-03-02T12:22:35.548Z,45.80
2023-03-02T12:25:04.013Z,46.22
2023-03-02T12:27:34.826Z,45.02
2023-03-02T12:30:23.785Z,45.70
2023-03-02T12:33:13.694Z,45.95
2023-03-02T12:35:40.195Z,45.59
2023-03-02T12:38:08.329Z,45.80
2023-03-02T12:40:38.025Z,46.27
2023-03-02T12:43:22.906Z,45.39
2023-03-02T12:45:58.596Z,46.89
2023-03-02T12:48:28.107Z,100.00
2023-03-02T12:50:56.248Z,46.59
2023-03-02T12:53:22.813Z,45.83
2023-03-02T12:55:49.384Z,45.41
2023-03-02T12:58:20.161Z,45.04
2023-03-02T13:00:53.914Z,45.24
2023-03-02T13:03:20.439Z,44.78
2023-03-02T13:05:49.880Z,44.54
2023-03-02T13:08:17.630Z,44.99
2023-03-02T13:10:48.300Z,44.87
2023-03-02T13:13:14.904Z,45.68
2023-03-02T13:15:51.238Z,44.67
2023-03-02T13:18:18.116Z,44.45
2023-03-02T13:20:44.929Z,45.49
2023-03-02T13:23:15.000Z,44.85
2023-03-02T13:25:52.202Z,45.36
2023-03-02T13:28:22.623Z,43.70
2023-03-02T13:30:51.132Z,44.22
2023-03-02T13:33:24.138Z,45.32
2023-03-02T13:35:50.630Z,44.67
2023-03-02T13:38:17.649Z,45.33
2023-03-02T13:40:48.570Z,45.25
2023-03-02T13:43:22.200Z,45.77
2023-03-02T13:46:15.108Z,46.24
2023-03-02T13:48:41.610Z,43.10
2023-03-02T13:51:17.950Z,42.71
2023-03-02T13:53:55.183Z,42.80
2023-03-02T13:59:49.719Z,44.27
2023-03-02T14:02:23.649Z,43.15
2023-03-02T14:04:50.236Z,44.11
2023-03-02T14:07:17.730Z,44.22
2023-03-02T14:12:34.337Z,44.69
2023-03-02T14:15:01.330Z,44.80
2023-03-02T14:17:27.884Z,45.67
2023-03-02T14:19:55.387Z,45.45
2023-03-02T14:22:22.305Z,46.13
2023-03-02T14:24:48.945Z,46.04
2023-03-02T14:27:16.151Z,46.02
2023-03-02T14:29:43.351Z,44.97
2023-03-02T14:32:10.545Z,45.29
2023-03-02T14:34:37.413Z,46.07
2023-03-02T14:37:04.871Z,46.55
2023-03-02T14:39:35.970Z,45.73
2023-03-02T14:42:05.616Z,46.66
2023-03-02T14:44:32.348Z,45.92
2023-03-02T14:46:59.207Z,46.87
2023-03-02T14:49:26.121Z,46.76
2023-03-02T14:51:55.844Z,46.03
2023-03-02T14:54:22.364Z,46.17
2023-03-02T14:56:50.460Z,46.50
2023-03-02T14:59:17.706Z,45.43
2023-03-02T15:01:47.282Z,45.11
2023-03-02T15:04:13.848Z,44.86
2023-03-02T15:06:40.826Z,45.27
2023-03-02T15:09:08.158Z,44.80
2023-03-02T15:11:35.159Z,43.96
2023-03-02T15:14:01.912Z,44.42
2023-03-02T15:16:28.620Z,43.83
2023-03-02T15:18:56.740Z,44.29
2023-03-02T15:21:24.380Z,45.24
2023-03-02T15:23:51.116Z,45.02
2023-03-02T15:26:17.687Z,44.30
2023-03-02T15:28:45.737Z,44.76
2023-03-02T15:31:14.315Z,44.45
2023-03-02T15:33:41.445Z,45.34
2023-03-02T15:36:08.089Z,45.63
2023-03-02T15:38:35.781Z,46.28
2023-03-02T15:41:12.658Z,45.37
2023-03-02T15:43:39.282Z,45.63
2023-03-02T15:46:06.167Z,46.52
2023-03-02T15:48:32.783Z,45.96
2023-03-02T15:50:59.822Z,46.93
2023-03-02T15:53:26.597Z,46.87
2023-03-02T15:55:53.146Z,47.52
2023-03-02T15:58:19.682Z,47.30
2023-03-02T16:00:46.183Z,47.34
2023-03-02T16:03:14.693Z,47.42
2023-03-02T16:05:41.425Z,47.93
2023-03-02T16:08:07.937Z,48.04
2023-03-02T16:10:36.111Z,49.33
2023-03-02T16:13:03.353Z,49.31
2023-03-02T16:15:30.146Z,49.87
2023-03-02T16:17:56.773Z,51.38
2023-03-02T16:20:23.405Z,51.17
2023-03-02T16:22:49.896Z,50.59
2023-03-02T16:25:16.459Z,52.15
2023-03-02T16:27:47.428Z,52.08
2023-03-02T16:30:15.124Z,52.08
2023-03-02T16:32:41.636Z,51.86
2023-03-02T16:35:08.735Z,51.86
2023-03-02T16:37:35.252Z,52.51
2023-03-02T16:40:01.895Z,52.62
2023-03-02T16:42:30.382Z,53.51
2023-03-02T16:44:56.922Z,52.86
2023-03-02T16:47:23.547Z,53.09
2023-03-02T16:49:50.052Z,53.51
2023-03-02T16:52:17.646Z,54.75
2023-03-02T16:54:44.964Z,53.71
2023-03-02T16:57:11.445Z,53.91
2023-03-02T16:59:37.918Z,56.28
2023-03-02T17:02:04.448Z,57.31
2023-03-02T17:04:34.789Z,58.40
2023-03-02T17:07:01.673Z,58.84
2023-03-02T17:09:28.419Z,58.40
2023-03-02T17:11:55.210Z,59.25
2023-03-02T17:14:21.721Z,58.80
2023-03-02T17:16:48.348Z,59.67
2023-03-02T17:19:14.779Z,60.37
2023-03-02T17:21:41.279Z,59.59
2023-03-02T17:24:07.835Z,61.17
2023-03-02T17:26:34.386Z,60.15
2023-03-02T17:29:01.026Z,60.66
2023-03-02T17:31:27.532Z,60.46
2023-03-02T17:33:54.090Z,60.45
2023-03-02T17:36:20.570Z,60.71
2023-03-02T17:38:47.530Z,60.87
2023-03-02T17:41:14.030Z,60.45
2023-03-02T17:43:40.887Z,60.38
2023-03-02T17:46:08.404Z,60.53
2023-03-02T17:48:34.953Z,60.91
2023-03-02T17:51:01.469Z,60.65
2023-03-02T17:53:28.378Z,60.84
2023-03-02T17:55:54.916Z,60.86
2023-03-02T17:58:21.472Z,60.92
2023-03-02T18:00:47.983Z,60.85
2023-03-02T18:03:14.546Z,60.57
2023-03-02T18:05:41.025Z,61.13
2023-03-02T18:08:07.513Z,61.47
2023-03-02T18:10:34.030Z,61.66
2023-03-02T18:13:00.529Z,61.55
2023-03-02T18:15:29.155Z,63.39
2023-03-02T18:17:55.644Z,62.44
2023-03-02T18:20:22.173Z,63.34
2023-03-02T18:22:48.712Z,63.13
2023-03-02T18:25:15.308Z,62.37
2023-03-02T18:27:41.829Z,63.10
2023-03-02T18:30:08.724Z,63.97
2023-03-02T18:32:35.533Z,64.62
2023-03-02T18:35:02.006Z,63.89
2023-03-02T18:37:28.571Z,64.96
2023-03-02T18:39:55.244Z,64.49
2023-03-02T18:42:22.567Z,64.32
2023-03-02T18:44:49.125Z,64.14
2023-03-02T18:47:16.119Z,63.95
2023-03-02T18:49:42.793Z,64.92
2023-03-02T18:52:09.987Z,64.64
2023-03-02T18:54:36.463Z,65.99
2023-03-02T18:57:03.654Z,66.15
2023-03-02T18:59:30.269Z,66.32
2023-03-02T19:01:57.576Z,65.64
2023-03-02T19:04:26.569Z,65.64
2023-03-02T19:06:54.342Z,65.69
2023-03-02T19:09:21.521Z,65.07
2023-03-02T19:11:48.081Z,65.25
2023-03-02T19:14:14.831Z,65.57
2023-03-02T19:16:41.334Z,65.63
2023-03-02T19:19:07.866Z,65.10
2023-03-02T19:21:34.407Z,64.85
2023-03-02T19:24:01.862Z,65.28
2023-03-02T19:26:28.470Z,65.14
2023-03-02T19:28:55.596Z,65.37
2023-03-02T19:31:22.141Z,65.34
2023-03-02T19:37:17.615Z,66.20
2023-03-02T19:39:44.150Z,65.95
2023-03-02T19:42:10.863Z,65.24
2023-03-02T19:44:37.344Z,66.27
2023-03-02T19:47:04.641Z,66.56
2023-03-02T19:49:31.389Z,66.09
2023-03-02T19:51:59.095Z,66.17
2023-03-02T19:54:26.019Z,65.84
2023-03-02T19:56:53.995Z,66.20
2023-03-02T19:59:22.033Z,66.76
2023-03-02T20:01:49.573Z,66.42
2023-03-02T20:04:16.431Z,66.46
2023-03-02T20:06:42.928Z,66.21
2023-03-02T20:09:09.722Z,66.78
2023-03-02T20:11:36.312Z,66.85
2023-03-02T20:14:02.921Z,66.21
2023-03-02T20:16:30.159Z,66.72
2023-03-02T20:18:58.220Z,66.15
2023-03-02T20:21:27.560Z,66.32
2023-03-02T20:23:54.478Z,66.35
2023-03-02T20:26:21.327Z,66.11
2023-03-02T20:28:48.056Z,66.81
2023-03-02T20:31:14.827Z,66.84
2023-03-02T20:33:46.596Z,66.36
2023-03-02T20:36:13.578Z,66.48
2023-03-02T20:38:41.806Z,66.41
2023-03-02T20:41:08.287Z,66.31
2023-03-02T20:43:34.852Z,66.39
2023-03-02T20:46:01.702Z,66.60
2023-03-02T20:48:28.350Z,66.81
2023-03-02T20:50:54.942Z,66.75
2023-03-02T20:53:21.554Z,67.45
2023-03-02T20:55:48.251Z,67.06
2023-03-02T20:58:14.685Z,67.67
2023-03-02T21:00:41.494Z,100.00
2023-03-02T21:03:08.494Z,100.00
2023-03-02T21:05:35.394Z,100.00
2023-03-02T21:08:02.065Z,100.00
2023-03-02T21:10:32.562Z,100.00
2023-03-02T21:12:59.168Z,100.00
2023-03-02T21:15:27.204Z,100.00
2023-03-02T21:17:57.276Z,100.00
2023-03-02T21:20:24.133Z,100.00
2023-03-02T21:22:50.692Z,100.00
2023-03-02T21:25:17.423Z,100.00
2023-03-02T21:27:44.265Z,100.00
2023-03-02T21:30:14.542Z,100.00
2023-03-02T21:32:45.704Z,100.00
2023-03-02T21:35:15.821Z,100.00
2023-03-02T21:37:42.477Z,100.00
2023-03-02T21:40:31.354Z,100.00
2023-03-02T21:43:00.608Z,100.00
2023-03-02T21:45:27.186Z,100.00
2023-03-02T21:47:53.681Z,100.00
2023-03-02T21:50:24.413Z,100.00
2023-03-02T21:52:50.890Z,100.00
2023-03-02T21:55:17.618Z,100.00
2023-03-02T21:57:44.133Z,100.00
2023-03-02T22:00:12.511Z,100.00
2023-03-02T22:02:39.072Z,100.00
2023-03-02T22:05:05.795Z,100.00
2023-03-02T22:07:32.310Z,100.00
2023-03-02T22:09:59.026Z,100.00
2023-03-02T22:12:25.482Z,100.00
2023-03-02T22:14:51.941Z,100.00
2023-03-02T22:17:19.195Z,100.00
2023-03-02T22:19:45.750Z,100.00
2023-03-02T22:22:26.013Z,100.00
2023-03-02T22:24:52.879Z,100.00
2023-03-02T22:27:22.059Z,100.00
2023-03-02T22:29:48.772Z,100.00
2023-03-02T22:32:17.439Z,100.00
2023-03-02T22:34:44.359Z,100.00
2023-03-02T22:37:11.915Z,100.00
2023-03-02T22:39:40.514Z,100.00
2023-03-02T22:42:13.587Z,100.00
2023-03-02T22:44:40.101Z,100.00
2023-03-02T22:47:12.483Z,100.00
2023-03-02T22:49:38.976Z,100.00
2023-03-02T22:52:11.486Z,100.00
2023-03-02T22:54:37.974Z,100.00
2023-03-02T22:57:08.316Z,100.00
2023-03-02T22:59:36.095Z,100.00
2023-03-02T23:02:02.841Z,100.00
2023-03-02T23:04:35.309Z,100.00
2023-03-02T23:07:02.857Z,100.00
2023-03-02T23:09:30.516Z,100.00
2023-03-02T23:11:57.876Z,100.00
2023-03-02T23:14:45.100Z,100.00
2023-03-02T23:17:12.371Z,100.00
2023-03-02T23:19:38.807Z,100.00
2023-03-02T23:22:05.306Z,100.00
2023-03-02T23:24:31.770Z,100.00
2023-03-02T23:26:58.249Z,100.00
2023-03-02T23:29:24.723Z,100.00
2023-03-02T23:31:51.250Z,100.00
2023-03-02T23:34:17.791Z,100.00
2023-03-02T23:36:44.267Z,100.00
2023-03-02T23:39:10.779Z,100.00
2023-03-02T23:41:37.448Z,100.00
2023-03-02T23:44:05.183Z,100.00
2023-03-02T23:46:31.719Z,100.00
2023-03-02T23:48:58.249Z,100.00
2023-03-02T23:51:25.554Z,100.00
2023-03-02T23:53:55.467Z,100.00
2023-03-02T23:56:22.030Z,100.00
2023-03-02T23:58:57.475Z,100.00
